createdAt,value
2017-05-25T07:00:21.236Z,47.19
2017-05-25T07:01:23.296Z,47.10
2017-05-25T07:02:24.965Z,46.91
2017-05-25T07:03:26.676Z,46.91
2017-05-25T07:04:28.367Z,46.62
2017-05-25T07:05:30.094Z,46.64
2017-05-25T07:06:31.811Z,45.77
2017-05-25T07:07:33.536Z,45.68
2017-05-25T07:08:35.272Z,45.87
2017-05-25T07:09:37.012Z,45.77
2017-05-25T07:10:38.802Z,45.29
2017-05-25T07:11:40.513Z,44.73
2017-05-25T07:12:42.394Z,45.20
2017-05-25T07:13:44.207Z,45.10
2017-05-25T07:14:45.929Z,44.64
2017-05-25T07:15:47.701Z,44.25
2017-05-25T07:16:49.501Z,45.03
2017-05-25T07:17:51.205Z,44.25
2017-05-25T07:19:32.490Z,44.66
2017-05-25T07:20:34.182Z,43.79
2017-05-25T07:21:35.945Z,43.89
2017-05-25T07:22:37.623Z,44.08
2017-05-25T07:23:39.440Z,44.08
2017-05-25T07:24:41.222Z,44.27
2017-05-25T07:25:43.016Z,44.37
2017-05-25T07:26:44.668Z,44.18
2017-05-25T07:27:46.363Z,44.08
2017-05-25T07:28:48.054Z,44.29
2017-05-25T07:29:49.809Z,44.49
2017-05-25T07:30:51.513Z,45.14
2017-05-25T07:31:53.191Z,45.34
2017-05-25T07:32:54.880Z,44.97
2017-05-25T07:33:56.605Z,45.07
2017-05-25T07:34:58.381Z,44.59
2017-05-25T07:36:00.035Z,44.87
2017-05-25T07:37:01.734Z,45.07
2017-05-25T07:38:03.436Z,45.36
2017-05-25T07:39:05.104Z,44.97
2017-05-25T07:40:06.916Z,44.68
2017-05-25T07:41:08.611Z,44.90
2017-05-25T07:42:10.311Z,44.80
2017-05-25T07:43:12.049Z,45.18
2017-05-25T07:44:13.775Z,45.09
2017-05-25T07:45:15.569Z,45.48
2017-05-25T07:46:17.299Z,44.60
2017-05-25T07:47:18.992Z,45.18
2017-05-25T07:48:20.652Z,45.89
2017-05-25T07:49:22.295Z,46.64
2017-05-25T07:50:24.054Z,45.69
2017-05-25T07:51:25.695Z,47.12
2017-05-25T07:52:27.359Z,45.98
2017-05-25T07:53:28.984Z,45.79
2017-05-25T07:54:30.701Z,45.89
2017-05-25T07:55:32.341Z,45.21
2017-05-25T07:56:34.000Z,45.69
2017-05-25T07:57:35.652Z,45.31
2017-05-25T07:58:37.349Z,45.31
2017-05-25T07:59:39.000Z,45.89
2017-05-25T08:00:40.712Z,45.59
2017-05-25T08:01:42.397Z,45.89
2017-05-25T08:02:44.035Z,46.08
2017-05-25T08:03:45.760Z,45.89
2017-05-25T08:04:47.458Z,46.27
2017-05-25T08:05:49.212Z,46.66
2017-05-25T08:06:50.862Z,46.85
2017-05-25T08:07:52.581Z,46.56
2017-05-25T08:08:54.236Z,46.85
2017-05-25T08:09:56.015Z,47.14
2017-05-25T08:10:57.689Z,47.63
2017-05-25T08:11:59.332Z,47.24
2017-05-25T08:13:01.012Z,47.24
2017-05-25T08:14:02.716Z,47.53
2017-05-25T08:15:04.371Z,47.81
2017-05-25T08:16:06.028Z,47.63
2017-05-25T08:17:07.753Z,47.65
2017-05-25T08:18:09.466Z,47.94
2017-05-25T08:19:11.167Z,47.65
2017-05-25T08:20:12.842Z,47.55
2017-05-25T08:21:14.515Z,47.55
2017-05-25T08:22:16.173Z,47.16
2017-05-25T08:23:17.893Z,47.16
2017-05-25T08:24:19.652Z,46.88
2017-05-25T08:25:21.297Z,46.78
2017-05-25T08:26:23.025Z,47.45
2017-05-25T08:27:24.702Z,46.88
2017-05-25T08:28:26.389Z,47.07
2017-05-25T08:29:28.161Z,47.07
2017-05-25T08:30:29.859Z,46.78
2017-05-25T08:31:31.539Z,46.39
2017-05-25T08:32:33.224Z,46.03
2017-05-25T08:33:34.885Z,45.93
2017-05-25T08:34:36.615Z,46.12
2017-05-25T08:35:38.264Z,46.03
2017-05-25T08:36:39.958Z,46.22
2017-05-25T08:37:41.673Z,46.10
2017-05-25T08:38:43.426Z,46.03
2017-05-25T08:39:45.141Z,45.93
2017-05-25T08:40:47.495Z,45.83
2017-05-25T08:41:49.182Z,45.93
2017-05-25T08:42:50.834Z,45.54
2017-05-25T08:43:52.639Z,45.54
2017-05-25T08:44:54.433Z,45.25
2017-05-25T08:45:56.095Z,45.93
2017-05-25T08:46:57.848Z,45.83
2017-05-25T08:47:59.556Z,45.74
2017-05-25T08:49:01.330Z,45.28
2017-05-25T08:50:03.079Z,45.45
2017-05-25T08:51:04.777Z,45.18
2017-05-25T08:52:06.590Z,45.86
2017-05-25T08:53:08.296Z,45.47
2017-05-25T08:54:10.046Z,45.57
2017-05-25T08:55:11.800Z,45.28
2017-05-25T08:56:13.506Z,44.70
2017-05-25T08:57:15.283Z,45.28
2017-05-25T08:58:17.094Z,45.18
2017-05-25T08:59:18.834Z,45.08
2017-05-25T09:00:20.529Z,45.01
2017-05-25T09:01:22.239Z,44.43
2017-05-25T09:02:24.015Z,43.95
2017-05-25T09:03:25.744Z,43.55
2017-05-25T09:04:27.604Z,43.95
2017-05-25T09:06:09.324Z,43.85
2017-05-25T09:07:11.081Z,43.46
2017-05-25T09:08:12.755Z,43.75
2017-05-25T09:09:14.435Z,43.75
2017-05-25T09:10:16.203Z,43.75
2017-05-25T09:11:17.924Z,43.46
2017-05-25T09:12:19.671Z,44.13
2017-05-25T09:13:21.348Z,44.13
2017-05-25T09:14:22.992Z,43.58
2017-05-25T09:15:24.778Z,43.09
2017-05-25T09:16:26.553Z,43.77
2017-05-25T09:17:28.244Z,42.90
2017-05-25T09:18:29.978Z,43.19
2017-05-25T09:19:31.691Z,43.09
2017-05-25T09:20:33.323Z,42.90
2017-05-25T09:21:35.124Z,42.80
2017-05-25T09:22:36.802Z,42.32
2017-05-25T09:23:38.562Z,42.03
2017-05-25T09:24:40.321Z,42.22
2017-05-25T09:25:41.991Z,42.03
2017-05-25T09:26:43.703Z,43.09
2017-05-25T09:27:45.456Z,41.93
2017-05-25T09:28:47.229Z,41.74
2017-05-25T09:29:48.922Z,42.44
2017-05-25T09:30:50.590Z,41.95
2017-05-25T09:31:52.238Z,41.95
2017-05-25T09:32:53.959Z,41.86
2017-05-25T09:33:55.717Z,41.56
2017-05-25T09:34:57.518Z,41.86
2017-05-25T09:35:59.244Z,41.66
2017-05-25T09:37:00.879Z,41.56
2017-05-25T09:38:02.526Z,40.50
2017-05-25T09:39:04.172Z,40.69
2017-05-25T09:40:05.915Z,40.69
2017-05-25T09:41:07.591Z,40.59
2017-05-25T09:42:09.288Z,40.79
2017-05-25T09:43:10.942Z,40.50
2017-05-25T09:44:12.615Z,41.20
2017-05-25T09:45:14.305Z,42.26
2017-05-25T09:46:15.973Z,40.71
2017-05-25T09:47:17.622Z,40.81
2017-05-25T09:48:19.334Z,40.03
2017-05-25T09:49:20.970Z,40.42
2017-05-25T09:50:22.679Z,40.61
2017-05-25T09:51:24.330Z,40.71
2017-05-25T09:52:26.003Z,43.23
2017-05-25T09:53:27.757Z,40.61
2017-05-25T09:54:29.451Z,40.33
2017-05-25T09:55:31.081Z,41.78
2017-05-25T09:56:32.826Z,41.30
2017-05-25T09:58:14.066Z,39.74
2017-05-25T09:59:15.763Z,40.61
2017-05-25T10:00:17.413Z,39.76
2017-05-25T10:01:19.147Z,40.23
2017-05-25T10:02:20.819Z,41.58
2017-05-25T10:03:22.522Z,40.64
2017-05-25T10:04:24.265Z,41.80
2017-05-25T10:05:26.005Z,42.19
2017-05-25T10:06:27.703Z,39.47
2017-05-25T10:07:29.396Z,39.76
2017-05-25T10:08:31.086Z,41.22
2017-05-25T10:09:32.769Z,39.37
2017-05-25T10:10:34.562Z,39.95
2017-05-25T10:11:36.269Z,39.37
2017-05-25T10:12:37.935Z,38.79
2017-05-25T10:13:39.662Z,39.08
2017-05-25T10:14:41.361Z,38.70
2017-05-25T10:15:43.119Z,39.28
2017-05-25T10:16:44.941Z,38.99
2017-05-25T10:17:46.671Z,39.57
2017-05-25T10:19:27.962Z,39.18
2017-05-25T10:20:29.625Z,39.28
2017-05-25T10:21:31.334Z,42.67
2017-05-25T10:22:32.988Z,39.86
2017-05-25T10:23:34.709Z,39.76
2017-05-25T10:24:36.403Z,40.54
2017-05-25T10:25:38.101Z,39.18
2017-05-25T10:26:39.837Z,39.08
2017-05-25T10:27:41.482Z,38.89
2017-05-25T10:28:43.185Z,38.50
2017-05-25T10:29:44.922Z,38.50
2017-05-25T10:30:46.597Z,38.31
2017-05-25T10:31:48.286Z,38.60
2017-05-25T10:32:49.998Z,38.02
2017-05-25T10:33:51.686Z,38.50
2017-05-25T10:34:53.471Z,38.89
2017-05-25T10:35:55.161Z,40.75
2017-05-25T10:36:56.875Z,38.70
2017-05-25T10:37:58.562Z,41.22
2017-05-25T10:39:00.313Z,42.11
2017-05-25T10:40:02.116Z,39.39
2017-05-25T10:41:03.811Z,39.28
2017-05-25T10:42:05.567Z,38.62
2017-05-25T10:43:07.334Z,39.01
2017-05-25T10:44:09.053Z,38.52
2017-05-25T10:45:10.734Z,38.40
2017-05-25T10:46:12.676Z,37.92
2017-05-25T10:47:14.430Z,38.12
2017-05-25T10:48:16.259Z,38.60
2017-05-25T10:49:17.965Z,38.02
2017-05-25T10:50:19.729Z,39.37
2017-05-25T10:51:21.377Z,39.08
2017-05-25T10:52:23.075Z,39.18
2017-05-25T10:53:24.829Z,38.42
2017-05-25T10:54:26.544Z,39.86
2017-05-25T10:55:28.319Z,38.12
2017-05-25T10:56:29.966Z,37.92
2017-05-25T10:57:31.718Z,38.89
2017-05-25T10:58:33.383Z,39.67
2017-05-25T10:59:35.082Z,39.18
2017-05-25T11:00:36.818Z,38.89
2017-05-25T11:01:38.528Z,38.89
2017-05-25T11:02:40.202Z,40.44
2017-05-25T11:03:41.832Z,39.47
2017-05-25T11:04:43.498Z,38.50
2017-05-25T11:05:45.225Z,38.79
2017-05-25T11:06:46.895Z,38.21
2017-05-25T11:07:48.603Z,37.82
2017-05-25T11:08:50.224Z,38.50
2017-05-25T11:09:51.886Z,38.40
2017-05-25T11:10:53.576Z,38.60
2017-05-25T11:11:55.250Z,39.18
2017-05-25T11:12:56.976Z,38.50
2017-05-25T11:13:58.630Z,38.40
2017-05-25T11:15:00.386Z,38.02
2017-05-25T11:16:02.059Z,38.12
2017-05-25T11:17:03.746Z,39.08
2017-05-25T11:18:05.443Z,38.31
2017-05-25T11:19:07.129Z,37.63
2017-05-25T11:20:08.830Z,39.67
2017-05-25T11:21:10.530Z,38.40
2017-05-25T11:22:12.238Z,37.73
2017-05-25T11:23:13.946Z,38.02
2017-05-25T11:24:15.706Z,38.40
2017-05-25T11:25:17.337Z,37.82
2017-05-25T11:26:19.000Z,38.02
2017-05-25T11:27:20.690Z,38.12
2017-05-25T11:28:22.322Z,38.40
2017-05-25T11:29:24.013Z,38.50
2017-05-25T11:30:25.690Z,38.21
2017-05-25T11:31:27.440Z,37.63
2017-05-25T11:32:29.282Z,37.24
2017-05-25T11:33:30.933Z,37.73
2017-05-25T11:34:32.618Z,37.34
2017-05-25T11:35:34.285Z,37.34
2017-05-25T11:36:35.978Z,37.24
2017-05-25T11:37:37.697Z,38.02
2017-05-25T11:38:39.346Z,38.12
2017-05-25T11:39:41.070Z,38.40
2017-05-25T11:40:42.743Z,37.82
2017-05-25T11:41:44.522Z,38.50
2017-05-25T11:42:46.230Z,38.21
2017-05-25T11:43:47.901Z,37.63
2017-05-25T11:44:49.553Z,37.43
2017-05-25T11:45:51.288Z,38.40
2017-05-25T11:46:53.048Z,37.73
2017-05-25T11:47:54.753Z,36.85
2017-05-25T11:48:56.361Z,36.56
2017-05-25T11:49:58.114Z,37.13
2017-05-25T11:50:59.836Z,37.73
2017-05-25T11:52:01.643Z,37.73
2017-05-25T11:53:03.323Z,38.09
2017-05-25T11:54:05.010Z,38.09
2017-05-25T11:55:06.723Z,38.39
2017-05-25T11:56:08.403Z,37.34
2017-05-25T11:57:10.507Z,37.71
2017-05-25T11:58:12.205Z,37.63
2017-05-25T11:59:13.994Z,37.41
2017-05-25T12:00:15.767Z,37.73
2017-05-25T12:01:17.507Z,37.41
2017-05-25T12:02:19.292Z,37.34
2017-05-25T12:03:21.083Z,37.23
2017-05-25T12:04:22.826Z,37.24
2017-05-25T12:05:24.574Z,37.53
2017-05-25T12:06:26.319Z,37.71
2017-05-25T12:07:28.115Z,37.23
2017-05-25T12:08:29.900Z,38.09
2017-05-25T12:09:31.687Z,38.00
2017-05-25T12:10:33.417Z,37.61
2017-05-25T12:11:35.117Z,37.71
2017-05-25T12:12:36.967Z,37.23
2017-05-25T12:13:38.761Z,37.61
2017-05-25T12:14:40.474Z,37.61
2017-05-25T12:15:42.232Z,37.51
2017-05-25T12:16:44.049Z,37.24
2017-05-25T12:17:45.771Z,37.32
2017-05-25T12:18:47.505Z,37.13
2017-05-25T12:19:49.189Z,37.32
2017-05-25T12:20:50.863Z,37.51
2017-05-25T12:21:52.553Z,37.71
2017-05-25T12:22:54.295Z,37.32
2017-05-25T12:23:56.019Z,37.90
2017-05-25T12:24:57.726Z,37.81
2017-05-25T12:25:59.432Z,37.61
2017-05-25T12:27:01.115Z,37.51
2017-05-25T12:28:02.875Z,37.32
2017-05-25T12:29:04.571Z,38.00
2017-05-25T12:30:06.253Z,37.13
2017-05-25T12:31:08.004Z,37.13
2017-05-25T12:32:09.699Z,37.23
2017-05-25T12:33:11.459Z,37.41
2017-05-25T12:34:13.158Z,37.51
2017-05-25T12:35:14.876Z,37.23
2017-05-25T12:36:16.610Z,37.32
2017-05-25T12:37:18.326Z,37.61
2017-05-25T12:38:20.056Z,36.93
2017-05-25T12:39:21.870Z,37.61
2017-05-25T12:40:23.576Z,37.41
2017-05-25T12:41:25.277Z,37.23
2017-05-25T12:42:26.998Z,37.51
2017-05-25T12:43:28.841Z,37.23
2017-05-25T12:44:30.632Z,37.61
2017-05-25T12:46:11.945Z,37.71
2017-05-25T12:47:13.703Z,37.61
2017-05-25T12:48:15.464Z,37.61
2017-05-25T12:49:17.176Z,37.71
2017-05-25T12:50:18.936Z,37.51
2017-05-25T12:51:20.727Z,37.41
2017-05-25T12:52:22.433Z,37.90
2017-05-25T12:53:24.117Z,37.13
2017-05-25T12:54:25.786Z,37.61
2017-05-25T12:55:27.478Z,37.51
2017-05-25T12:56:29.254Z,37.40
2017-05-25T12:57:30.966Z,36.93
2017-05-25T12:58:32.684Z,37.51
2017-05-25T12:59:34.359Z,37.21
2017-05-25T13:00:36.000Z,36.93
2017-05-25T13:01:37.707Z,37.61
2017-05-25T13:02:39.430Z,37.59
2017-05-25T13:03:41.099Z,37.90
2017-05-25T13:04:42.765Z,37.21
2017-05-25T13:05:44.448Z,37.40
2017-05-25T13:06:46.288Z,37.51
2017-05-25T13:07:48.024Z,37.71
2017-05-25T13:08:49.798Z,37.41
2017-05-25T13:09:51.572Z,37.98
2017-05-25T13:10:53.254Z,37.59
2017-05-25T13:11:55.017Z,37.49
2017-05-25T13:12:56.704Z,37.59
2017-05-25T13:13:58.490Z,37.59
2017-05-25T13:15:00.339Z,37.21
2017-05-25T13:16:02.028Z,37.49
2017-05-25T13:17:03.865Z,37.40
2017-05-25T13:18:05.554Z,37.88
2017-05-25T13:19:07.207Z,37.69
2017-05-25T13:20:08.936Z,37.40
2017-05-25T13:21:10.698Z,37.88
2017-05-25T13:22:12.372Z,37.40
2017-05-25T13:23:14.051Z,37.69
2017-05-25T13:24:15.785Z,37.30
2017-05-25T13:25:17.572Z,37.79
2017-05-25T13:26:19.332Z,37.49
2017-05-25T13:27:20.993Z,37.69
2017-05-25T13:28:22.697Z,37.69
2017-05-25T13:29:24.455Z,37.30
2017-05-25T13:30:26.158Z,37.69
2017-05-25T13:31:27.861Z,37.49
2017-05-25T13:32:29.618Z,37.79
2017-05-25T13:33:31.287Z,37.79
2017-05-25T13:34:33.014Z,37.59
2017-05-25T13:35:34.727Z,37.88
2017-05-25T13:36:36.467Z,37.59
2017-05-25T13:37:38.218Z,37.88
2017-05-25T13:38:39.907Z,37.49
2017-05-25T13:39:41.677Z,37.59
2017-05-25T13:40:43.396Z,37.11
2017-05-25T13:41:45.135Z,37.01
2017-05-25T13:42:46.933Z,37.11
2017-05-25T13:43:48.690Z,37.49
2017-05-25T13:44:50.424Z,37.69
2017-05-25T13:45:52.154Z,37.69
2017-05-25T13:46:53.863Z,37.59
2017-05-25T13:47:55.561Z,37.59
2017-05-25T13:48:57.251Z,37.49
2017-05-25T13:49:58.986Z,37.30
2017-05-25T13:51:00.744Z,37.69
2017-05-25T13:52:02.438Z,37.59
2017-05-25T13:53:04.127Z,37.69
2017-05-25T13:54:05.836Z,37.69
2017-05-25T13:55:07.541Z,37.49
2017-05-25T13:56:09.409Z,37.30
2017-05-25T13:57:50.693Z,37.59
2017-05-25T13:59:31.920Z,37.59
2017-05-25T14:00:33.621Z,37.69
2017-05-25T14:01:35.341Z,37.59
2017-05-25T14:02:37.072Z,37.69
2017-05-25T14:03:38.849Z,37.59
2017-05-25T14:04:40.699Z,37.57
2017-05-25T14:05:42.438Z,37.59
2017-05-25T14:06:44.167Z,37.30
2017-05-25T14:07:45.861Z,37.49
2017-05-25T14:08:47.555Z,38.07
2017-05-25T14:09:49.419Z,37.79
2017-05-25T14:10:51.089Z,37.67
2017-05-25T14:11:52.812Z,38.06
2017-05-25T14:12:54.489Z,37.87
2017-05-25T14:13:56.214Z,38.06
2017-05-25T14:14:57.991Z,38.06
2017-05-25T14:15:59.685Z,37.77
2017-05-25T14:17:01.515Z,37.28
2017-05-25T14:18:03.207Z,37.96
2017-05-25T14:19:04.933Z,37.77
2017-05-25T14:20:06.638Z,37.77
2017-05-25T14:21:08.399Z,37.96
2017-05-25T14:22:10.214Z,38.06
2017-05-25T14:23:11.934Z,37.96
2017-05-25T14:24:13.573Z,37.96
2017-05-25T14:25:15.325Z,37.96
2017-05-25T14:26:16.996Z,37.96
2017-05-25T14:27:18.715Z,37.96
2017-05-25T14:28:20.360Z,37.98
2017-05-25T14:29:22.025Z,37.30
2017-05-25T14:30:23.717Z,37.28
2017-05-25T14:31:25.358Z,37.67
2017-05-25T14:32:27.105Z,38.06
2017-05-25T14:33:28.781Z,37.67
2017-05-25T14:34:30.463Z,37.67
2017-05-25T14:35:32.242Z,37.77
2017-05-25T14:36:33.878Z,37.77
2017-05-25T14:37:35.601Z,37.67
2017-05-25T14:38:37.324Z,38.06
2017-05-25T14:39:39.072Z,37.87
2017-05-25T14:40:40.741Z,38.06
2017-05-25T14:41:42.467Z,37.96
2017-05-25T14:42:44.134Z,37.96
2017-05-25T14:43:45.803Z,37.96
2017-05-25T14:44:47.557Z,37.96
2017-05-25T14:45:49.218Z,38.06
2017-05-25T14:46:50.856Z,37.96
2017-05-25T14:47:52.593Z,37.87
2017-05-25T14:48:54.239Z,38.06
2017-05-25T14:49:56.047Z,37.77
2017-05-25T14:50:57.736Z,37.96
2017-05-25T14:51:59.387Z,37.96
2017-05-25T14:53:01.016Z,37.87
2017-05-25T14:54:02.674Z,37.77
2017-05-25T14:55:04.416Z,37.96
2017-05-25T14:56:06.086Z,37.96
2017-05-25T14:57:07.770Z,38.06
2017-05-25T14:58:09.439Z,37.87
2017-05-25T14:59:11.071Z,37.96
2017-05-25T15:00:15.459Z,37.96
2017-05-25T15:01:18.517Z,37.96
2017-05-25T15:02:21.050Z,38.06
2017-05-25T15:03:22.707Z,37.87
2017-05-25T15:04:24.356Z,37.96
2017-05-25T15:05:26.093Z,37.96
2017-05-25T15:06:27.778Z,38.06
2017-05-25T15:07:29.470Z,38.06
2017-05-25T15:08:31.169Z,38.06
2017-05-25T15:10:12.410Z,37.96
2017-05-25T15:11:14.119Z,37.96
2017-05-25T15:12:15.807Z,38.06
2017-05-25T15:13:17.550Z,38.25
2017-05-25T15:14:19.345Z,37.77
2017-05-25T15:15:21.107Z,37.87
2017-05-25T15:16:22.805Z,37.96
2017-05-25T15:17:24.495Z,38.15
2017-05-25T15:18:26.242Z,37.87
2017-05-25T15:19:27.966Z,37.77
2017-05-25T15:20:29.870Z,38.06
2017-05-25T15:21:31.583Z,37.96
2017-05-25T15:22:33.317Z,38.15
2017-05-25T15:23:34.986Z,37.96
2017-05-25T15:24:36.684Z,38.06
2017-05-25T15:25:38.398Z,37.87
2017-05-25T15:26:40.158Z,37.77
2017-05-25T15:27:41.867Z,38.06
2017-05-25T15:28:43.557Z,37.96
2017-05-25T15:29:45.241Z,38.06
2017-05-25T15:30:46.926Z,37.87
2017-05-25T15:31:48.781Z,37.96
2017-05-25T15:32:50.463Z,38.06
2017-05-25T15:33:52.105Z,38.06
2017-05-25T15:34:53.814Z,38.15
2017-05-25T15:35:55.490Z,38.25
2017-05-25T15:36:57.236Z,38.25
2017-05-25T15:37:58.943Z,38.15
2017-05-25T15:39:00.637Z,38.45
2017-05-25T15:40:02.368Z,38.45
2017-05-25T15:41:04.026Z,38.35
2017-05-25T15:42:05.742Z,38.06
2017-05-25T15:43:07.422Z,37.96
2017-05-25T15:44:09.153Z,38.25
2017-05-25T15:45:10.852Z,38.25
2017-05-25T15:46:12.515Z,38.45
2017-05-25T15:47:14.232Z,37.96
2017-05-25T15:48:15.902Z,38.15
2017-05-25T15:49:17.598Z,38.35
2017-05-25T15:50:19.317Z,38.54
2017-05-25T15:51:21.020Z,38.06
2017-05-25T15:52:22.776Z,38.35
2017-05-25T15:53:24.526Z,38.54
2017-05-25T15:54:26.164Z,38.35
2017-05-25T15:55:27.868Z,38.45
2017-05-25T15:56:29.594Z,38.45
2017-05-25T15:57:31.390Z,38.45
2017-05-25T15:58:33.070Z,38.35
2017-05-25T15:59:34.726Z,38.45
2017-05-25T16:00:36.378Z,38.35
2017-05-25T16:01:38.199Z,38.45
2017-05-25T16:02:39.978Z,38.35
2017-05-25T16:03:41.628Z,38.45
2017-05-25T16:04:43.276Z,38.45
2017-05-25T16:05:44.946Z,38.45
2017-05-25T16:07:26.231Z,38.35
2017-05-25T16:08:27.931Z,38.45
2017-05-25T16:09:29.615Z,38.45
2017-05-25T16:10:31.263Z,38.54
2017-05-25T16:11:32.916Z,38.73
2017-05-25T16:12:34.609Z,38.45
2017-05-25T16:13:36.254Z,38.35
2017-05-25T16:14:37.955Z,38.45
2017-05-25T16:15:39.605Z,38.45
2017-05-25T16:16:41.330Z,38.15
2017-05-25T16:17:43.046Z,38.45
2017-05-25T16:18:44.676Z,38.15
2017-05-25T16:19:46.313Z,38.35
2017-05-25T16:20:48.038Z,38.54
2017-05-25T16:21:49.678Z,38.54
2017-05-25T16:22:51.334Z,38.73
2017-05-25T16:23:53.018Z,38.83
2017-05-25T16:24:54.663Z,38.45
2017-05-25T16:25:56.369Z,38.73
2017-05-25T16:26:58.074Z,38.73
2017-05-25T16:27:59.781Z,38.73
2017-05-25T16:29:01.437Z,38.35
2017-05-25T16:30:03.196Z,38.54
2017-05-25T16:31:04.963Z,38.45
2017-05-25T16:32:06.730Z,38.45
2017-05-25T16:33:08.437Z,38.64
2017-05-25T16:34:10.094Z,38.64
2017-05-25T16:35:11.797Z,38.83
2017-05-25T16:36:13.415Z,38.45
2017-05-25T16:37:15.143Z,38.54
2017-05-25T16:38:16.825Z,38.45
2017-05-25T16:39:18.515Z,38.64
2017-05-25T16:40:20.280Z,38.73
2017-05-25T16:41:21.952Z,38.64
2017-05-25T16:42:23.723Z,38.73
2017-05-25T16:43:25.417Z,38.64
2017-05-25T16:44:27.078Z,38.83
2017-05-25T16:45:28.739Z,38.64
2017-05-25T16:46:30.473Z,38.53
2017-05-25T16:47:32.119Z,38.45
2017-05-25T16:48:33.853Z,38.35
2017-05-25T16:49:35.483Z,38.45
2017-05-25T16:50:37.147Z,38.45
2017-05-25T16:51:38.801Z,38.43
2017-05-25T16:52:40.500Z,38.45
2017-05-25T16:53:42.239Z,38.53
2017-05-25T16:54:43.881Z,38.71
2017-05-25T16:55:45.539Z,38.53
2017-05-25T16:56:47.294Z,38.81
2017-05-25T16:57:48.989Z,38.83
2017-05-25T16:58:50.683Z,39.03
2017-05-25T16:59:52.370Z,38.71
2017-05-25T17:00:54.034Z,38.81
2017-05-25T17:01:55.703Z,38.83
2017-05-25T17:02:57.392Z,38.73
2017-05-25T17:03:59.137Z,38.54
2017-05-25T17:05:00.792Z,38.62
2017-05-25T17:06:02.474Z,38.81
2017-05-25T17:07:04.168Z,38.71
2017-05-25T17:08:05.802Z,38.81
2017-05-25T17:09:07.527Z,38.81
2017-05-25T17:10:09.257Z,38.71
2017-05-25T17:11:10.932Z,38.83
2017-05-25T17:12:12.543Z,38.71
2017-05-25T17:13:14.213Z,38.71
2017-05-25T17:14:15.923Z,38.62
2017-05-25T17:15:17.582Z,38.62
2017-05-25T17:16:19.265Z,38.62
2017-05-25T17:17:20.999Z,38.53
2017-05-25T17:18:22.620Z,38.62
2017-05-25T17:19:24.281Z,38.71
2017-05-25T17:20:25.892Z,38.62
2017-05-25T17:21:27.557Z,38.71
2017-05-25T17:22:29.301Z,38.53
2017-05-25T17:23:30.979Z,38.62
2017-05-25T17:24:32.598Z,38.81
2017-05-25T17:25:34.247Z,38.71
2017-05-25T17:26:35.926Z,38.53
2017-05-25T17:27:37.704Z,38.71
2017-05-25T17:28:39.399Z,38.62
2017-05-25T17:29:41.107Z,38.71
2017-05-25T17:30:42.790Z,38.71
2017-05-25T17:31:44.494Z,38.71
2017-05-25T17:32:46.230Z,38.81
2017-05-25T17:33:48.017Z,38.91
2017-05-25T17:34:49.715Z,39.01
2017-05-25T17:35:51.403Z,38.91
2017-05-25T17:36:53.055Z,38.71
2017-05-25T17:37:54.778Z,38.81
2017-05-25T17:38:56.440Z,38.91
2017-05-25T17:39:58.145Z,38.91
2017-05-25T17:40:59.920Z,39.01
2017-05-25T17:42:01.631Z,39.01
2017-05-25T17:43:03.287Z,39.01
2017-05-25T17:44:04.957Z,39.01
2017-05-25T17:45:06.710Z,38.91
2017-05-25T17:46:08.466Z,39.11
2017-05-25T17:47:10.158Z,39.11
2017-05-25T17:48:11.853Z,38.91
2017-05-25T17:49:13.517Z,38.91
2017-05-25T17:50:15.174Z,39.11
2017-05-25T17:51:16.919Z,39.11
2017-05-25T17:52:18.694Z,39.20
2017-05-25T17:53:20.348Z,39.11
2017-05-25T17:54:21.990Z,39.29
2017-05-25T17:55:23.681Z,39.11
2017-05-25T17:56:25.355Z,39.29
2017-05-25T17:57:27.159Z,39.11
2017-05-25T17:58:28.831Z,39.11
2017-05-25T17:59:30.493Z,39.11
2017-05-25T18:00:32.186Z,39.39
2017-05-25T18:01:33.845Z,39.29
2017-05-25T18:02:35.603Z,39.20
2017-05-25T18:03:37.274Z,39.11
2017-05-25T18:04:38.950Z,39.29
2017-05-25T18:05:40.592Z,39.11
2017-05-25T18:06:42.243Z,39.20
2017-05-25T18:07:43.946Z,39.01
2017-05-25T18:08:45.623Z,39.11
2017-05-25T18:09:47.408Z,39.20
2017-05-25T18:10:49.062Z,39.29
2017-05-25T18:11:50.712Z,39.18
2017-05-25T18:12:52.394Z,39.37
2017-05-25T18:13:54.060Z,39.37
2017-05-25T18:14:55.788Z,39.09
2017-05-25T18:15:57.473Z,39.28
2017-05-25T18:16:59.177Z,39.18
2017-05-25T18:18:00.902Z,40.05
2017-05-25T18:19:02.563Z,40.05
2017-05-25T18:20:04.348Z,40.05
2017-05-25T18:21:06.082Z,39.57
2017-05-25T18:22:07.812Z,39.67
2017-05-25T18:23:09.547Z,39.86
2017-05-25T18:24:11.198Z,39.86
2017-05-25T18:25:12.980Z,39.47
2017-05-25T18:26:14.784Z,39.57
2017-05-25T18:27:16.357Z,39.57
2017-05-25T18:28:18.076Z,39.57
2017-05-25T18:29:19.791Z,39.76
2017-05-25T18:30:21.563Z,39.67
2017-05-25T18:31:23.270Z,39.76
2017-05-25T18:32:24.950Z,39.28
2017-05-25T18:33:26.700Z,39.67
2017-05-25T18:34:28.480Z,39.67
2017-05-25T18:35:30.890Z,39.86
2017-05-25T18:36:32.575Z,40.44
2017-05-25T18:37:34.206Z,40.34
2017-05-25T18:38:35.891Z,40.34
2017-05-25T18:39:37.615Z,40.73
2017-05-25T18:40:39.323Z,40.61
2017-05-25T18:41:41.030Z,40.63
2017-05-25T18:42:42.698Z,40.44
2017-05-25T18:43:44.496Z,40.25
2017-05-25T18:44:46.140Z,40.52
2017-05-25T18:45:47.899Z,40.63
2017-05-25T18:46:49.596Z,40.42
2017-05-25T18:48:31.208Z,40.52
2017-05-25T18:49:32.870Z,40.90
2017-05-25T18:50:34.555Z,40.61
2017-05-25T18:51:36.249Z,40.81
2017-05-25T18:52:37.938Z,40.90
2017-05-25T18:53:39.698Z,40.71
2017-05-25T18:54:41.343Z,40.71
2017-05-25T18:55:43.002Z,40.90
2017-05-25T18:56:44.656Z,40.90
2017-05-25T18:57:46.397Z,41.48
2017-05-25T18:58:48.058Z,41.39
2017-05-25T18:59:49.767Z,41.39
2017-05-25T19:00:51.461Z,41.77
2017-05-25T19:01:53.146Z,41.67
2017-05-25T19:02:54.851Z,41.77
2017-05-25T19:03:56.540Z,41.58
2017-05-25T19:04:58.245Z,41.77
2017-05-25T19:05:59.969Z,41.48
2017-05-25T19:07:01.633Z,41.77
2017-05-25T19:08:03.352Z,41.87
2017-05-25T19:09:04.986Z,41.97
2017-05-25T19:10:06.686Z,42.04
2017-05-25T19:11:08.394Z,42.07
2017-05-25T19:12:10.084Z,42.04
2017-05-25T19:13:11.782Z,42.04
2017-05-25T19:14:13.462Z,41.94
2017-05-25T19:15:15.157Z,42.14
2017-05-25T19:16:16.845Z,42.33
2017-05-25T19:17:18.535Z,42.24
2017-05-25T19:18:20.243Z,42.24
2017-05-25T19:19:21.908Z,42.14
2017-05-25T19:20:23.574Z,42.24
2017-05-25T19:21:25.255Z,42.43
2017-05-25T19:22:26.913Z,42.33
2017-05-25T19:23:28.610Z,42.52
2017-05-25T19:24:30.498Z,42.82
2017-05-25T19:25:32.119Z,42.72
2017-05-25T19:26:33.839Z,42.91
2017-05-25T19:27:35.553Z,42.52
2017-05-25T19:28:37.296Z,43.20
2017-05-25T19:29:38.989Z,42.89
2017-05-25T19:30:40.678Z,43.10
2017-05-25T19:31:42.341Z,42.91
2017-05-25T19:32:43.996Z,43.18
2017-05-25T19:33:45.738Z,42.91
2017-05-25T19:34:47.505Z,42.89
2017-05-25T19:35:49.164Z,43.28
2017-05-25T19:36:50.846Z,43.28
2017-05-25T19:37:52.529Z,43.37
2017-05-25T19:38:54.242Z,43.18
2017-05-25T19:39:55.949Z,43.28
2017-05-25T19:40:57.608Z,43.57
2017-05-25T19:41:59.298Z,43.57
2017-05-25T19:43:00.943Z,43.57
2017-05-25T19:44:02.632Z,43.47
2017-05-25T19:45:04.335Z,43.37
2017-05-25T19:46:06.001Z,43.47
2017-05-25T19:47:07.648Z,43.37
2017-05-25T19:48:09.294Z,43.57
2017-05-25T19:49:10.957Z,43.47
2017-05-25T19:50:12.627Z,43.57
2017-05-25T19:51:14.381Z,43.76
2017-05-25T19:52:16.120Z,43.95
2017-05-25T19:53:17.806Z,43.85
2017-05-25T19:54:19.452Z,43.85
2017-05-25T19:55:21.127Z,44.15
2017-05-25T19:56:22.846Z,44.24
2017-05-25T19:57:24.543Z,44.24
2017-05-25T19:58:26.300Z,44.05
2017-05-25T19:59:27.964Z,43.76
2017-05-25T20:00:29.712Z,43.85
2017-05-25T20:01:31.419Z,44.34
2017-05-25T20:02:33.057Z,44.15
2017-05-25T20:03:34.803Z,44.32
2017-05-25T20:04:36.511Z,44.32
2017-05-25T20:05:38.274Z,44.12
2017-05-25T20:06:39.958Z,44.51
2017-05-25T20:07:41.562Z,44.51
2017-05-25T20:08:43.216Z,44.51
2017-05-25T20:09:44.922Z,44.22
2017-05-25T20:10:46.763Z,44.32
2017-05-25T20:11:48.403Z,44.32
2017-05-25T20:12:50.080Z,44.03
2017-05-25T20:13:51.756Z,44.80
2017-05-25T20:14:53.413Z,44.70
2017-05-25T20:15:55.161Z,44.80
2017-05-25T20:16:56.939Z,44.90
2017-05-25T20:17:58.673Z,44.70
2017-05-25T20:19:00.309Z,44.60
2017-05-25T20:20:01.991Z,44.60
2017-05-25T20:21:03.728Z,44.70